Time;durP1;ratioP1;P1;durP2;ratioP2;P2;SDS_P1;SDS_P2;PMS_P1;PMS_P2;Temp;Humidity;BMP_temperature;BMP_pressure;BME280_temperature;BME280_humidity;BME280_pressure;Samples;Min_cycle;Max_cycle;Signal;HPM_P1;HPM_P2
2023/07/23 00:01:46;;;;;;;22.30;17.45;;;;;;;;;;5075394;28;20358;-81
2023/07/23 00:04:13;;;;;;;22.15;18.60;;;;;;;;;;5074981;28;20033;-81
2023/07/23 00:06:41;;;;;;;18.90;16.85;;;;;;;;;;5075251;28;20037;-83
2023/07/23 00:09:07;;;;;;;24.30;18.77;;;;;;;;;;5069798;28;20174;-81
2023/07/23 00:11:33;;;;;;;21.52;18.08;;;;;;;;;;5073773;28;20036;-81
2023/07/23 00:13:59;;;;;;;21.23;18.02;;;;;;;;;;5075232;28;20025;-81
2023/07/23 00:16:25;;;;;;;22.85;18.63;;;;;;;;;;5074838;28;20045;-83
2023/07/23 00:18:51;;;;;;;21.20;18.58;;;;;;;;;;5074732;28;20029;-83
2023/07/23 00:21:17;;;;;;;22.55;17.45;;;;;;;;;;5075605;28;20021;-81
2023/07/23 00:23:43;;;;;;;24.52;17.45;;;;;;;;;;5076555;28;20104;-82
2023/07/23 00:26:09;;;;;;;19.58;16.30;;;;;;;;;;5074873;28;20025;-81
2023/07/23 00:28:35;;;;;;;24.73;16.77;;;;;;;;;;5075114;28;20089;-83
2023/07/23 00:31:02;;;;;;;24.52;15.23;;;;;;;;;;5075871;28;20021;-82
2023/07/23 00:33:28;;;;;;;21.08;15.32;;;;;;;;;;5074758;28;20020;-82
2023/07/23 00:35:54;;;;;;;20.25;16.05;;;;;;;;;;5074218;28;20028;-81
2023/07/23 00:38:20;;;;;;;24.15;18.23;;;;;;;;;;5074217;28;20039;-81
2023/07/23 00:40:46;;;;;;;24.27;18.60;;;;;;;;;;5076103;28;20016;-82
2023/07/23 00:43:12;;;;;;;26.98;18.48;;;;;;;;;;5079069;28;20380;-81
2023/07/23 00:45:39;;;;;;;23.00;18.70;;;;;;;;;;5078826;28;20024;-82
2023/07/23 00:48:05;;;;;;;26.17;17.83;;;;;;;;;;5074308;28;20097;-82
2023/07/23 00:50:31;;;;;;;29.17;19.08;;;;;;;;;;5074880;28;20031;-82
2023/07/23 00:52:58;;;;;;;26.13;19.52;;;;;;;;;;5074685;28;20544;-83
2023/07/23 00:55:24;;;;;;;22.67;17.55;;;;;;;;;;5074409;28;20460;-83
2023/07/23 00:57:50;;;;;;;21.70;18.45;;;;;;;;;;5074706;28;20492;-82
2023/07/23 01:00:16;;;;;;;24.55;18.02;;;;;;;;;;5074614;28;20480;-82
2023/07/23 01:02:42;;;;;;;24.92;19.35;;;;;;;;;;5075552;28;20028;-81
2023/07/23 01:05:09;;;;;;;27.60;18.65;;;;;;;;;;5077433;28;20020;-81
2023/07/23 01:07:35;;;;;;;24.83;17.98;;;;;;;;;;5094258;28;20032;-82
2023/07/23 01:10:03;;;;;;;22.08;19.70;;;;;;;;;;5094153;28;20044;-82
2023/07/23 01:12:30;;;;;;;24.75;17.60;;;;;;;;;;5097526;28;20034;-81
2023/07/23 01:14:57;;;;;;;25.00;19.73;;;;;;;;;;5119880;28;20035;-81
2023/07/23 01:17:24;;;;;;;22.80;17.27;;;;;;;;;;5097344;28;20032;-82
2023/07/23 01:20:06;;;;;;;19.75;17.08;;;;;;;;;;5095812;28;20095;-82
2023/07/23 01:22:33;;;;;;;20.45;18.38;;;;;;;;;;5094060;28;20047;-82
2023/07/23 01:24:59;;;;;;;21.42;17.52;;;;;;;;;;5094153;28;20499;-82
2023/07/23 01:27:26;;;;;;;28.98;18.92;;;;;;;;;;5094257;28;20035;-82
2023/07/23 01:29:52;;;;;;;20.23;16.88;;;;;;;;;;5094913;28;20412;-82
2023/07/23 01:32:18;;;;;;;22.67;18.20;;;;;;;;;;5095425;28;20020;-82
2023/07/23 01:34:44;;;;;;;23.23;18.27;;;;;;;;;;5095628;28;20027;-82
2023/07/23 01:37:10;;;;;;;19.90;17.80;;;;;;;;;;5093768;28;20536;-82
2023/07/23 01:39:37;;;;;;;28.05;18.40;;;;;;;;;;5093993;28;20053;-82
2023/07/23 01:42:03;;;;;;;22.25;18.67;;;;;;;;;;5095183;28;20024;-82
2023/07/23 01:44:30;;;;;;;21.83;18.48;;;;;;;;;;5093684;28;20115;-82
2023/07/23 01:46:56;;;;;;;24.70;18.58;;;;;;;;;;5093179;28;20020;-82
2023/07/23 01:49:22;;;;;;;25.38;20.23;;;;;;;;;;5093210;28;20032;-81
2023/07/23 01:51:48;;;;;;;23.08;19.00;;;;;;;;;;5093846;28;20048;-82
2023/07/23 01:54:14;;;;;;;21.13;18.90;;;;;;;;;;5093735;28;20025;-82
2023/07/23 01:56:41;;;;;;;25.80;20.08;;;;;;;;;;5093352;28;20016;-82
2023/07/23 01:59:08;;;;;;;22.27;20.08;;;;;;;;;;5094973;28;20078;-82
2023/07/23 02:01:34;;;;;;;25.75;21.65;;;;;;;;;;5093706;28;20020;-82
2023/07/23 02:04:00;;;;;;;24.00;19.05;;;;;;;;;;5093443;28;20467;-82
2023/07/23 02:06:26;;;;;;;26.48;20.05;;;;;;;;;;5093658;28;20036;-82
2023/07/23 02:08:53;;;;;;;25.08;22.02;;;;;;;;;;5093317;28;20048;-82
2023/07/23 02:11:19;;;;;;;22.63;19.73;;;;;;;;;;5093140;28;20353;-81
2023/07/23 02:13:45;;;;;;;23.67;18.88;;;;;;;;;;5086213;28;20031;-81
2023/07/23 02:16:17;;;;;;;23.00;20.55;;;;;;;;;;5072817;28;20025;-80
2023/07/23 02:18:43;;;;;;;23.23;20.90;;;;;;;;;;5074027;28;20077;-80
2023/07/23 02:21:10;;;;;;;23.98;19.35;;;;;;;;;;5072935;28;20087;-80
2023/07/23 02:23:36;;;;;;;24.25;19.55;;;;;;;;;;5072969;28;20021;-80
2023/07/23 02:26:02;;;;;;;21.77;19.58;;;;;;;;;;5072603;28;20049;-81
2023/07/23 02:28:28;;;;;;;26.80;19.98;;;;;;;;;;5072773;28;20059;-80
2023/07/23 02:30:58;;;;;;;23.30;19.02;;;;;;;;;;5072737;28;20055;-81
2023/07/23 02:33:24;;;;;;;25.40;18.98;;;;;;;;;;5072220;28;20111;-81
2023/07/23 02:35:50;;;;;;;25.15;20.58;;;;;;;;;;5072714;28;20024;-82
2023/07/23 02:38:17;;;;;;;23.52;18.92;;;;;;;;;;5072673;28;20024;-81
2023/07/23 02:40:43;;;;;;;23.95;20.63;;;;;;;;;;5072182;28;20021;-80
2023/07/23 02:43:12;;;;;;;25.58;19.45;;;;;;;;;;5072613;28;20051;-81
2023/07/23 02:45:38;;;;;;;23.60;18.38;;;;;;;;;;5072317;28;20031;-80
2023/07/23 02:48:04;;;;;;;21.65;19.45;;;;;;;;;;5072486;28;20020;-81
2023/07/23 02:50:31;;;;;;;21.48;19.20;;;;;;;;;;5072423;28;20033;-81
2023/07/23 02:52:57;;;;;;;23.70;19.58;;;;;;;;;;5073495;28;20123;-82
2023/07/23 02:55:25;;;;;;;22.10;19.75;;;;;;;;;;5072446;28;20027;-81
2023/07/23 02:57:51;;;;;;;24.08;18.50;;;;;;;;;;5072442;28;20024;-81
2023/07/23 03:00:20;;;;;;;22.95;20.52;;;;;;;;;;5071862;28;20024;-82
2023/07/23 03:02:49;;;;;;;20.42;18.27;;;;;;;;;;5072461;28;20075;-81
2023/07/23 03:05:15;;;;;;;23.15;20.70;;;;;;;;;;5072701;28;20111;-81
2023/07/23 03:07:42;;;;;;;22.70;20.48;;;;;;;;;;5073339;28;20037;-81
2023/07/23 03:10:09;;;;;;;22.65;20.02;;;;;;;;;;5072128;28;20084;-80
2023/07/23 03:12:35;;;;;;;21.48;19.15;;;;;;;;;;5072270;28;20523;-80
2023/07/23 03:15:02;;;;;;;23.08;19.63;;;;;;;;;;5071716;28;20031;-81
2023/07/23 03:17:28;;;;;;;21.77;19.45;;;;;;;;;;5073689;28;20063;-81
2023/07/23 03:19:54;;;;;;;23.75;20.17;;;;;;;;;;5072336;28;20476;-81
2023/07/23 03:22:21;;;;;;;22.02;19.85;;;;;;;;;;5071845;28;20060;-81
2023/07/23 03:24:47;;;;;;;24.50;20.92;;;;;;;;;;5072301;28;20052;-80
2023/07/23 03:27:13;;;;;;;23.58;18.95;;;;;;;;;;5073216;28;20480;-81
2023/07/23 03:29:39;;;;;;;22.50;19.42;;;;;;;;;;5072800;28;20017;-82
2023/07/23 03:32:06;;;;;;;22.27;19.85;;;;;;;;;;5073164;28;20020;-80
2023/07/23 03:34:32;;;;;;;21.33;18.98;;;;;;;;;;5073085;28;20028;-80
2023/07/23 03:36:58;;;;;;;23.45;20.95;;;;;;;;;;5072037;28;20025;-81
2023/07/23 03:39:24;;;;;;;23.55;20.73;;;;;;;;;;5073462;28;20028;-80
2023/07/23 03:41:51;;;;;;;20.67;18.58;;;;;;;;;;5078288;28;20016;-81
2023/07/23 03:44:17;;;;;;;21.35;19.27;;;;;;;;;;5092159;28;20115;-81
2023/07/23 03:46:44;;;;;;;23.80;20.95;;;;;;;;;;5093507;28;20024;-81
2023/07/23 03:49:10;;;;;;;24.00;20.88;;;;;;;;;;5091985;28;20123;-82
2023/07/23 03:51:36;;;;;;;24.10;19.77;;;;;;;;;;5092128;28;20065;-80
2023/07/23 03:54:03;;;;;;;22.15;19.10;;;;;;;;;;5092096;28;20078;-81
2023/07/23 03:56:29;;;;;;;20.48;18.38;;;;;;;;;;5091875;28;20020;-80
2023/07/23 03:58:55;;;;;;;22.40;19.55;;;;;;;;;;5092052;28;20115;-80
2023/07/23 04:01:21;;;;;;;24.88;19.70;;;;;;;;;;5092147;28;20091;-81
2023/07/23 04:03:47;;;;;;;22.85;20.27;;;;;;;;;;5093390;28;20027;-80
2023/07/23 04:06:13;;;;;;;22.85;20.48;;;;;;;;;;5093374;28;20111;-80
2023/07/23 04:08:39;;;;;;;21.00;18.70;;;;;;;;;;5093233;28;20029;-80
2023/07/23 04:11:05;;;;;;;23.80;19.60;;;;;;;;;;5090177;28;20058;-81
2023/07/23 04:13:31;;;;;;;24.08;20.52;;;;;;;;;;5075990;28;20024;-81
2023/07/23 04:16:01;;;;;;;26.25;21.38;;;;;;;;;;5095842;28;20032;-79
2023/07/23 04:18:45;;;;;;;22.55;20.33;;;;;;;;;;5083934;28;20036;-80
2023/07/23 04:21:11;;;;;;;22.95;20.52;;;;;;;;;;5075321;28;20163;-79
2023/07/23 04:23:37;;;;;;;21.88;19.55;;;;;;;;;;5075120;28;20039;-80
2023/07/23 04:26:03;;;;;;;23.77;19.88;;;;;;;;;;5075292;28;20025;-79
2023/07/23 04:28:29;;;;;;;21.48;19.13;;;;;;;;;;5075108;28;20441;-79
2023/07/23 04:30:56;;;;;;;20.00;18.02;;;;;;;;;;5074667;28;20119;-80
2023/07/23 04:33:22;;;;;;;20.35;18.23;;;;;;;;;;5076553;28;20028;-80
2023/07/23 04:35:48;;;;;;;21.80;18.17;;;;;;;;;;5074699;28;20028;-81
2023/07/23 04:38:14;;;;;;;21.10;17.20;;;;;;;;;;5076028;28;20036;-80
2023/07/23 04:40:40;;;;;;;17.88;15.88;;;;;;;;;;5074908;28;20038;-80
2023/07/23 04:43:06;;;;;;;18.98;17.05;;;;;;;;;;5076258;28;20021;-80
2023/07/23 04:45:32;;;;;;;20.88;16.30;;;;;;;;;;5074636;28;20027;-80
2023/07/23 04:47:58;;;;;;;18.58;15.85;;;;;;;;;;5074709;28;20024;-80
2023/07/23 04:50:25;;;;;;;18.73;16.38;;;;;;;;;;5074734;28;20119;-80
2023/07/23 04:52:51;;;;;;;16.60;14.75;;;;;;;;;;5075707;28;20021;-80
2023/07/23 04:55:17;;;;;;;16.98;15.00;;;;;;;;;;5074655;28;20381;-81
2023/07/23 04:57:43;;;;;;;18.48;15.02;;;;;;;;;;5075965;28;20036;-81
2023/07/23 05:00:09;;;;;;;17.17;15.07;;;;;;;;;;5075617;28;20531;-80
2023/07/23 05:02:35;;;;;;;17.48;15.55;;;;;;;;;;5075805;28;20464;-80
2023/07/23 05:05:01;;;;;;;16.17;13.90;;;;;;;;;;5074516;28;20112;-80
2023/07/23 05:07:27;;;;;;;20.13;15.02;;;;;;;;;;5074138;28;20439;-80
2023/07/23 05:09:53;;;;;;;17.40;15.60;;;;;;;;;;5074074;28;20059;-81
2023/07/23 05:12:20;;;;;;;19.50;16.65;;;;;;;;;;5073790;28;20029;-80
2023/07/23 05:14:48;;;;;;;17.08;14.43;;;;;;;;;;5074227;28;20024;-80
2023/07/23 05:17:14;;;;;;;19.38;17.45;;;;;;;;;;5075552;28;20108;-80
2023/07/23 05:19:40;;;;;;;17.33;15.30;;;;;;;;;;5075155;28;20023;-80
2023/07/23 05:22:06;;;;;;;19.50;15.93;;;;;;;;;;5075271;28;20024;-80
2023/07/23 05:24:32;;;;;;;16.42;14.70;;;;;;;;;;5075395;28;20032;-80
2023/07/23 05:26:59;;;;;;;16.05;14.45;;;;;;;;;;5073822;28;20063;-80
2023/07/23 05:29:25;;;;;;;15.98;14.38;;;;;;;;;;5075164;28;20029;-80
2023/07/23 05:31:51;;;;;;;14.27;12.88;;;;;;;;;;5074014;28;20069;-80
2023/07/23 05:34:17;;;;;;;15.68;14.13;;;;;;;;;;5073570;28;20103;-80
2023/07/23 05:36:43;;;;;;;15.20;13.65;;;;;;;;;;5073877;28;20028;-80
2023/07/23 05:39:10;;;;;;;16.27;14.65;;;;;;;;;;5073600;28;20119;-80
2023/07/23 05:41:36;;;;;;;16.52;13.77;;;;;;;;;;5073485;28;20043;-79
2023/07/23 05:44:02;;;;;;;17.67;14.90;;;;;;;;;;5073644;28;20021;-80
2023/07/23 05:46:28;;;;;;;16.48;13.77;;;;;;;;;;5074645;28;20415;-80
2023/07/23 05:48:54;;;;;;;16.45;14.85;;;;;;;;;;5073195;28;20052;-80
2023/07/23 05:51:20;;;;;;;18.08;14.50;;;;;;;;;;5073519;28;20464;-81
2023/07/23 05:53:46;;;;;;;18.50;15.65;;;;;;;;;;5073458;28;20017;-81
2023/07/23 05:56:13;;;;;;;18.23;15.73;;;;;;;;;;5073120;28;20063;-81
2023/07/23 05:58:39;;;;;;;16.25;14.55;;;;;;;;;;5073541;28;20028;-80
2023/07/23 06:01:05;;;;;;;17.25;15.25;;;;;;;;;;5073231;28;20029;-81
2023/07/23 06:03:31;;;;;;;17.20;15.32;;;;;;;;;;5074610;28;20028;-81
2023/07/23 06:05:57;;;;;;;16.52;14.90;;;;;;;;;;5073163;28;20033;-81
2023/07/23 06:08:23;;;;;;;16.52;14.57;;;;;;;;;;5072948;28;20183;-80
2023/07/23 06:10:49;;;;;;;18.60;15.10;;;;;;;;;;5073214;28;20035;-81
2023/07/23 06:13:15;;;;;;;17.50;15.77;;;;;;;;;;5073185;28;20146;-81
2023/07/23 06:15:41;;;;;;;17.88;16.17;;;;;;;;;;5072660;28;20476;-79
2023/07/23 06:18:08;;;;;;;18.85;16.08;;;;;;;;;;5073097;28;20028;-81
2023/07/23 06:20:34;;;;;;;19.67;15.35;;;;;;;;;;5073197;28;20020;-80
2023/07/23 06:23:01;;;;;;;17.27;15.35;;;;;;;;;;5072885;28;20028;-80
2023/07/23 06:25:27;;;;;;;17.25;15.15;;;;;;;;;;5074296;28;20028;-81
2023/07/23 06:27:53;;;;;;;17.15;14.82;;;;;;;;;;5073011;28;20090;-81
2023/07/23 06:30:19;;;;;;;17.02;14.95;;;;;;;;;;5072618;28;20081;-79
2023/07/23 06:32:45;;;;;;;16.48;14.88;;;;;;;;;;5073028;28;20120;-79
2023/07/23 06:35:12;;;;;;;18.25;15.68;;;;;;;;;;5072735;28;20048;-80
2023/07/23 06:37:41;;;;;;;17.05;14.82;;;;;;;;;;5072425;28;20376;-80
2023/07/23 06:40:07;;;;;;;16.90;15.25;;;;;;;;;;5072917;28;20471;-79
2023/07/23 06:42:33;;;;;;;17.48;15.65;;;;;;;;;;5072530;28;20024;-79
2023/07/23 06:45:00;;;;;;;17.52;15.80;;;;;;;;;;5073348;28;20453;-80
2023/07/23 06:47:26;;;;;;;17.77;15.95;;;;;;;;;;5072500;28;20075;-79
2023/07/23 06:49:52;;;;;;;18.52;16.65;;;;;;;;;;5072488;28;20033;-79
2023/07/23 06:52:19;;;;;;;20.48;17.35;;;;;;;;;;5072238;28;20069;-79
2023/07/23 06:54:45;;;;;;;18.52;16.73;;;;;;;;;;5072431;28;20104;-79
2023/07/23 06:57:11;;;;;;;18.83;16.83;;;;;;;;;;5073551;28;20607;-79
2023/07/23 06:59:37;;;;;;;18.95;17.15;;;;;;;;;;5073247;28;20146;-80
2023/07/23 07:02:03;;;;;;;20.42;18.30;;;;;;;;;;5072561;28;20031;-80
2023/07/23 07:04:29;;;;;;;20.77;17.10;;;;;;;;;;5073717;28;20587;-80
2023/07/23 07:06:55;;;;;;;20.63;16.90;;;;;;;;;;5072614;28;20464;-79
2023/07/23 07:09:21;;;;;;;18.45;16.42;;;;;;;;;;5072360;28;20133;-80
2023/07/23 07:11:50;;;;;;;19.73;16.50;;;;;;;;;;5080016;28;20493;-80
2023/07/23 07:14:16;;;;;;;19.60;17.63;;;;;;;;;;5093630;28;20096;-79
2023/07/23 07:16:42;;;;;;;17.83;16.00;;;;;;;;;;5092490;28;20448;-79
2023/07/23 07:19:08;;;;;;;19.17;17.35;;;;;;;;;;5102950;28;20056;-79
2023/07/23 07:21:34;;;;;;;19.13;17.23;;;;;;;;;;5095357;28;20031;-80
2023/07/23 07:24:00;;;;;;;18.73;16.80;;;;;;;;;;5092356;28;20031;-80
2023/07/23 07:26:26;;;;;;;20.73;16.55;;;;;;;;;;5093356;28;20024;-80
2023/07/23 07:28:52;;;;;;;18.52;16.63;;;;;;;;;;5092372;28;20104;-80
2023/07/23 07:31:18;;;;;;;19.73;17.75;;;;;;;;;;5081423;28;20464;-80
2023/07/23 07:33:45;;;;;;;21.90;19.85;;;;;;;;;;5072852;28;20025;-81
2023/07/23 07:36:11;;;;;;;18.90;16.95;;;;;;;;;;5092042;28;20022;-80
2023/07/23 07:38:37;;;;;;;19.58;17.52;;;;;;;;;;5092664;28;20106;-81
2023/07/23 07:41:03;;;;;;;19.58;16.85;;;;;;;;;;5091984;28;20032;-81
2023/07/23 07:43:30;;;;;;;19.45;17.55;;;;;;;;;;5093279;28;20030;-81
2023/07/23 07:46:05;;;;;;;18.08;16.25;;;;;;;;;;5096060;28;20094;-81
2023/07/23 07:48:31;;;;;;;18.70;16.48;;;;;;;;;;5095574;28;20028;-80
2023/07/23 07:51:02;;;;;;;18.52;16.83;;;;;;;;;;5095836;28;20387;-80
2023/07/23 07:53:29;;;;;;;18.38;15.60;;;;;;;;;;5095387;28;20081;-81
2023/07/23 07:55:55;;;;;;;18.33;16.42;;;;;;;;;;5095715;28;20525;-81
2023/07/23 07:58:24;;;;;;;18.17;16.27;;;;;;;;;;5097249;28;20035;-80
2023/07/23 08:01:04;;;;;;;21.83;17.25;;;;;;;;;;5094920;28;20012;-81
2023/07/23 08:03:30;;;;;;;18.60;16.52;;;;;;;;;;5096775;28;20432;-79
2023/07/23 08:05:57;;;;;;;18.55;16.75;;;;;;;;;;5096746;28;20095;-81
2023/07/23 08:08:27;;;;;;;18.90;16.90;;;;;;;;;;5094671;28;20031;-80
2023/07/23 08:10:54;;;;;;;18.25;15.75;;;;;;;;;;5095474;28;20020;-80
2023/07/23 08:13:21;;;;;;;16.88;15.18;;;;;;;;;;5095589;28;20421;-80
2023/07/23 08:15:50;;;;;;;17.77;15.90;;;;;;;;;;5094792;28;20024;-78
2023/07/23 08:18:16;;;;;;;16.90;14.82;;;;;;;;;;5096957;28;20035;-78
2023/07/23 08:20:43;;;;;;;16.73;14.68;;;;;;;;;;5095443;28;20023;-80
2023/07/23 08:23:09;;;;;;;21.38;15.75;;;;;;;;;;5095854;28;20016;-79
2023/07/23 08:25:36;;;;;;;17.30;14.60;;;;;;;;;;5095396;28;20016;-79
2023/07/23 08:28:03;;;;;;;17.13;15.48;;;;;;;;;;5094889;28;20084;-78
2023/07/23 08:30:30;;;;;;;22.60;19.35;;;;;;;;;;5094473;28;20028;-79
2023/07/23 08:32:56;;;;;;;21.25;19.15;;;;;;;;;;5095280;28;20051;-79
2023/07/23 08:35:23;;;;;;;18.20;14.80;;;;;;;;;;5094867;28;20446;-79
2023/07/23 08:37:49;;;;;;;15.77;14.15;;;;;;;;;;5094930;28;20024;-80
2023/07/23 08:40:17;;;;;;;16.92;14.30;;;;;;;;;;5094767;28;20070;-79
2023/07/23 08:42:43;;;;;;;15.13;13.25;;;;;;;;;;5094443;28;20479;-80
2023/07/23 08:45:29;;;;;;;14.65;12.98;;;;;;;;;;5094615;28;20028;-81
2023/07/23 08:48:13;;;;;;;20.02;13.32;;;;;;;;;;5096871;28;20031;-80
2023/07/23 08:50:40;;;;;;;14.75;13.00;;;;;;;;;;5096246;28;20050;-80
2023/07/23 08:53:07;;;;;;;16.40;12.48;;;;;;;;;;5094943;28;20024;-80
2023/07/23 08:55:33;;;;;;;15.68;13.45;;;;;;;;;;5094907;28;20024;-80
2023/07/23 08:58:00;;;;;;;21.33;14.48;;;;;;;;;;5094397;28;20031;-80
2023/07/23 09:00:28;;;;;;;15.98;13.55;;;;;;;;;;5094488;28;20020;-81
2023/07/23 09:02:54;;;;;;;17.60;13.57;;;;;;;;;;5096073;28;20065;-81
2023/07/23 09:05:20;;;;;;;13.55;12.25;;;;;;;;;;5094636;28;20024;-81
2023/07/23 09:07:47;;;;;;;15.10;13.38;;;;;;;;;;5094350;28;20467;-80
2023/07/23 09:10:13;;;;;;;17.42;13.25;;;;;;;;;;5096164;28;20044;-81
2023/07/23 09:12:42;;;;;;;14.07;12.60;;;;;;;;;;5094480;28;20406;-81
2023/07/23 09:15:08;;;;;;;17.92;14.32;;;;;;;;;;5094397;28;20499;-81
2023/07/23 09:17:34;;;;;;;16.60;13.77;;;;;;;;;;5094448;28;20020;-81
2023/07/23 09:20:00;;;;;;;15.77;13.60;;;;;;;;;;5094804;28;20020;-82
2023/07/23 09:22:31;;;;;;;15.75;14.20;;;;;;;;;;5094252;28;20498;-84
2023/07/23 09:25:01;;;;;;;18.25;14.70;;;;;;;;;;5094593;28;20031;-82
2023/07/23 09:27:36;;;;;;;19.55;13.25;;;;;;;;;;5094411;28;20023;-83
2023/07/23 09:30:03;;;;;;;15.80;13.10;;;;;;;;;;5094273;28;20020;-82
2023/07/23 09:32:30;;;;;;;15.20;13.10;;;;;;;;;;5094042;28;20020;-85
2023/07/23 09:34:57;;;;;;;15.20;13.73;;;;;;;;;;5095488;28;20024;-82
2023/07/23 09:37:23;;;;;;;14.77;13.27;;;;;;;;;;5093584;28;20025;-83
2023/07/23 09:39:54;;;;;;;19.63;13.50;;;;;;;;;;5093869;28;20103;-80
2023/07/23 09:42:24;;;;;;;16.05;14.43;;;;;;;;;;5084226;28;20418;-81
2023/07/23 09:44:50;;;;;;;15.77;14.20;;;;;;;;;;5090756;28;20464;-82
2023/07/23 09:47:16;;;;;;;18.17;14.73;;;;;;;;;;5093881;28;20024;-83
2023/07/23 09:49:43;;;;;;;16.77;15.00;;;;;;;;;;5094665;28;20036;-82
2023/07/23 09:52:09;;;;;;;14.88;12.75;;;;;;;;;;5095397;28;20031;-81
2023/07/23 09:54:36;;;;;;;19.02;15.48;;;;;;;;;;5092883;28;20065;-84
2023/07/23 09:57:03;;;;;;;14.43;12.15;;;;;;;;;;5092589;28;20026;-83
2023/07/23 09:59:30;;;;;;;12.90;11.70;;;;;;;;;;5094135;28;20058;-85
2023/07/23 10:01:57;;;;;;;15.48;13.00;;;;;;;;;;5093106;28;20387;-83
2023/07/23 10:04:23;;;;;;;11.98;10.82;;;;;;;;;;5093606;28;20012;-84
2023/07/23 10:06:49;;;;;;;13.40;12.10;;;;;;;;;;5092842;28;20084;-84
2023/07/23 10:09:16;;;;;;;18.92;14.88;;;;;;;;;;5091126;28;20048;-84
2023/07/23 10:11:42;;;;;;;15.20;13.70;;;;;;;;;;5093485;28;20036;-85
2023/07/23 10:14:08;;;;;;;17.10;12.07;;;;;;;;;;5093336;28;20487;-85
2023/07/23 10:16:38;;;;;;;13.27;11.38;;;;;;;;;;5096948;28;20024;-83
2023/07/23 10:19:05;;;;;;;14.10;12.27;;;;;;;;;;5111201;28;20161;-83
2023/07/23 10:21:33;;;;;;;15.50;11.23;;;;;;;;;;5092954;28;20027;-84
2023/07/23 10:24:00;;;;;;;12.50;11.20;;;;;;;;;;5082558;28;20028;-85
2023/07/23 10:26:26;;;;;;;14.48;13.05;;;;;;;;;;5090060;28;20020;-83
2023/07/23 10:28:57;;;;;;;14.68;12.38;;;;;;;;;;5093388;28;20073;-83
2023/07/23 10:31:27;;;;;;;13.43;11.02;;;;;;;;;;5094305;28;20135;-84
2023/07/23 10:33:53;;;;;;;12.32;11.05;;;;;;;;;;5094227;28;20480;-85
2023/07/23 10:36:22;;;;;;;13.77;12.32;;;;;;;;;;5094450;28;20028;-84
2023/07/23 10:38:48;;;;;;;13.32;11.90;;;;;;;;;;5093014;28;20517;-85
2023/07/23 10:41:14;;;;;;;13.35;11.85;;;;;;;;;;5093191;28;20032;-85
2023/07/23 10:43:44;;;;;;;12.55;11.35;;;;;;;;;;5092629;28;20023;-84
2023/07/23 10:46:12;;;;;;;15.55;11.00;;;;;;;;;;5092949;28;20115;-82
2023/07/23 10:48:39;;;;;;;11.98;10.32;;;;;;;;;;5092783;28;20423;-83
2023/07/23 10:51:15;;;;;;;11.18;10.07;;;;;;;;;;5094237;28;20024;-83
2023/07/23 10:54:06;;;;;;;11.32;10.05;;;;;;;;;;5092193;28;20027;-85
2023/07/23 10:56:33;;;;;;;11.52;10.38;;;;;;;;;;5093185;28;20020;-84
2023/07/23 10:59:10;;;;;;;14.02;10.75;;;;;;;;;;5092803;28;20078;-83
2023/07/23 11:01:40;;;;;;;16.08;10.68;;;;;;;;;;5092808;28;20535;-81
2023/07/23 11:04:10;;;;;;;12.10;10.25;;;;;;;;;;5092537;28;20027;-81
2023/07/23 11:06:40;;;;;;;12.30;9.93;;;;;;;;;;5092934;28;20472;-80
2023/07/23 11:09:11;;;;;;;10.77;9.65;;;;;;;;;;5092364;28;20048;-82
2023/07/23 11:11:41;;;;;;;11.63;10.40;;;;;;;;;;5092600;28;20497;-81
2023/07/23 11:14:23;;;;;;;13.00;10.30;;;;;;;;;;5092629;28;20028;-82
2023/07/23 11:16:50;;;;;;;10.55;9.55;;;;;;;;;;5092068;28;20028;-81
2023/07/23 11:19:17;;;;;;;13.95;11.95;;;;;;;;;;5109538;28;20402;-82
2023/07/23 11:21:47;;;;;;;11.00;10.00;;;;;;;;;;5092719;28;20020;-82
2023/07/23 11:24:13;;;;;;;11.45;9.90;;;;;;;;;;5092438;28;20020;-81
2023/07/23 11:26:40;;;;;;;12.70;10.57;;;;;;;;;;5092745;28;20464;-82
2023/07/23 11:29:07;;;;;;;10.45;9.35;;;;;;;;;;5102275;28;20058;-80
2023/07/23 11:31:34;;;;;;;10.85;9.43;;;;;;;;;;5102056;28;20029;-80
2023/07/23 11:34:00;;;;;;;9.82;8.82;;;;;;;;;;5104670;28;20030;-82
2023/07/23 11:36:29;;;;;;;12.70;10.63;;;;;;;;;;5102620;28;20016;-81
2023/07/23 11:38:56;;;;;;;13.18;11.50;;;;;;;;;;5086015;28;20422;-82
2023/07/23 11:41:35;;;;;;;12.45;9.55;;;;;;;;;;5086517;28;20024;-84
2023/07/23 11:44:03;;;;;;;11.13;10.00;;;;;;;;;;5094069;28;20065;-83
2023/07/23 11:46:50;;;;;;;12.93;10.55;;;;;;;;;;5092086;28;20071;-82
2023/07/23 11:49:17;;;;;;;11.60;9.13;;;;;;;;;;5092227;28;20020;-82
2023/07/23 11:51:43;;;;;;;10.88;9.35;;;;;;;;;;5094388;28;20063;-81
2023/07/23 11:54:13;;;;;;;12.10;9.20;;;;;;;;;;5092041;28;20012;-82
2023/07/23 11:56:46;;;;;;;10.35;8.90;;;;;;;;;;5092182;28;20020;-82
2023/07/23 11:59:13;;;;;;;13.05;9.68;;;;;;;;;;5092197;28;20026;-83
2023/07/23 12:01:40;;;;;;;11.20;10.10;;;;;;;;;;5092131;28;20383;-81
2023/07/23 12:04:07;;;;;;;11.85;9.45;;;;;;;;;;5091823;28;20026;-81
2023/07/23 12:06:38;;;;;;;15.98;9.40;;;;;;;;;;5091952;28;20025;-81
2023/07/23 12:09:12;;;;;;;10.05;9.00;;;;;;;;;;5092638;28;20055;-82
2023/07/23 12:11:39;;;;;;;11.50;9.10;;;;;;;;;;5093371;28;20048;-84
2023/07/23 12:14:06;;;;;;;11.52;9.20;;;;;;;;;;5091644;28;20020;-81
2023/07/23 12:16:39;;;;;;;10.00;8.77;;;;;;;;;;5091960;28;20111;-83
2023/07/23 12:19:11;;;;;;;11.75;9.10;;;;;;;;;;5092056;28;20028;-81
2023/07/23 12:21:40;;;;;;;11.10;9.60;;;;;;;;;;5093108;28;20024;-83
2023/07/23 12:24:12;;;;;;;10.30;8.75;;;;;;;;;;5092429;28;20468;-81
2023/07/23 12:26:38;;;;;;;9.90;8.90;;;;;;;;;;5092723;28;20020;-82
2023/07/23 12:29:05;;;;;;;11.57;9.85;;;;;;;;;;5091838;28;20028;-82
2023/07/23 12:31:31;;;;;;;10.98;9.88;;;;;;;;;;5092157;28;20028;-83
2023/07/23 12:33:57;;;;;;;12.05;9.25;;;;;;;;;;5096122;28;20024;-82
2023/07/23 12:36:23;;;;;;;11.13;8.60;;;;;;;;;;5095335;28;20024;-82
2023/07/23 12:38:49;;;;;;;11.05;9.40;;;;;;;;;;5096525;28;20028;-82
2023/07/23 12:41:15;;;;;;;20.45;10.73;;;;;;;;;;5096435;28;20119;-81
2023/07/23 12:43:41;;;;;;;12.02;8.68;;;;;;;;;;5095440;28;20016;-83
2023/07/23 12:46:07;;;;;;;12.48;9.32;;;;;;;;;;5096345;28;20467;-80
2023/07/23 12:48:33;;;;;;;11.35;9.52;;;;;;;;;;5094823;28;20030;-82
2023/07/23 12:51:00;;;;;;;11.63;9.00;;;;;;;;;;5095111;28;20024;-81
2023/07/23 12:53:26;;;;;;;9.35;8.45;;;;;;;;;;5097494;28;20025;-81
2023/07/23 12:55:52;;;;;;;11.88;8.50;;;;;;;;;;5075567;28;20107;-84
2023/07/23 12:58:18;;;;;;;10.00;8.30;;;;;;;;;;5091701;28;20127;-81
2023/07/23 13:00:44;;;;;;;10.45;8.38;;;;;;;;;;5112636;28;20054;-83
2023/07/23 13:03:10;;;;;;;13.10;8.95;;;;;;;;;;5104998;28;20494;-82
2023/07/23 13:05:36;;;;;;;9.38;8.48;;;;;;;;;;5098255;28;20036;-83
2023/07/23 13:08:02;;;;;;;13.32;9.05;;;;;;;;;;5094862;28;20027;-85
2023/07/23 13:10:28;;;;;;;11.25;8.65;;;;;;;;;;5095693;28;20587;-84
2023/07/23 13:12:56;;;;;;;9.57;8.43;;;;;;;;;;5111926;28;20035;-81
2023/07/23 13:15:22;;;;;;;10.27;9.25;;;;;;;;;;5095816;28;20043;-81
2023/07/23 13:17:48;;;;;;;11.70;10.50;;;;;;;;;;5091236;28;20025;-82
2023/07/23 13:20:14;;;;;;;10.40;8.93;;;;;;;;;;5086644;28;20051;-80
2023/07/23 13:22:40;;;;;;;11.30;9.93;;;;;;;;;;5094648;28;20063;-83
2023/07/23 13:25:07;;;;;;;12.85;9.15;;;;;;;;;;5109705;28;20000;-82
2023/07/23 13:27:33;;;;;;;10.98;8.32;;;;;;;;;;5115139;27;20046;-82
2023/07/23 13:29:59;;;;;;;11.18;8.75;;;;;;;;;;5097473;28;20467;-84
2023/07/23 13:32:25;;;;;;;10.85;8.82;;;;;;;;;;5102260;28;20021;-85
2023/07/23 13:34:51;;;;;;;10.65;8.93;;;;;;;;;;5091963;28;20517;-82
2023/07/23 13:37:18;;;;;;;9.43;8.38;;;;;;;;;;5094661;28;20020;-83
2023/07/23 13:39:46;;;;;;;10.68;8.98;;;;;;;;;;5107841;28;20447;-82
2023/07/23 13:42:12;;;;;;;11.93;9.45;;;;;;;;;;5085181;28;20012;-83
2023/07/23 13:44:38;;;;;;;10.43;8.38;;;;;;;;;;5097058;28;20021;-84
2023/07/23 13:47:04;;;;;;;9.55;8.30;;;;;;;;;;5094047;28;20039;-85
2023/07/23 13:49:30;;;;;;;11.02;8.57;;;;;;;;;;5094501;28;20043;-85
2023/07/23 13:51:56;;;;;;;9.88;8.75;;;;;;;;;;5090911;28;20017;-86
2023/07/23 13:54:22;;;;;;;9.48;8.45;;;;;;;;;;5085877;28;20154;-85
2023/07/23 13:56:48;;;;;;;12.00;9.27;;;;;;;;;;5094238;28;20061;-83
2023/07/23 13:59:14;;;;;;;9.77;8.77;;;;;;;;;;5094382;28;20036;-86
2023/07/23 14:01:41;;;;;;;11.65;9.88;;;;;;;;;;5094401;28;20020;-83
2023/07/23 14:04:07;;;;;;;10.77;9.45;;;;;;;;;;5095055;28;20078;-84
2023/07/23 14:06:33;;;;;;;10.77;9.23;;;;;;;;;;5094090;28;20024;-86
2023/07/23 14:08:59;;;;;;;10.48;8.32;;;;;;;;;;5094649;28;20117;-85
2023/07/23 14:11:25;;;;;;;13.25;8.85;;;;;;;;;;5093746;28;20020;-85
2023/07/23 14:13:51;;;;;;;11.25;9.57;;;;;;;;;;5093548;28;20051;-82
2023/07/23 14:16:20;;;;;;;10.57;8.52;;;;;;;;;;5087130;28;20024;-84
2023/07/23 14:18:46;;;;;;;10.52;8.68;;;;;;;;;;5093527;28;20107;-84
2023/07/23 14:21:14;;;;;;;10.95;9.00;;;;;;;;;;5093541;28;20039;-85